Time;durP1;ratioP1;P1;durP2;ratioP2;P2;SDS_P1;SDS_P2;PMS_P1;PMS_P2;Temp;Humidity;BMP_temperature;BMP_pressure;BME280_temperature;BME280_humidity;BME280_pressure;Samples;Min_cycle;Max_cycle;Signal;HPM_P1;HPM_P2
2022/07/28 00:00:04;;;;;;;;;;;28.90;76.90;;;;;;5090972;28;19958;-70
2022/07/28 00:02:30;;;;;;;;;;;28.90;76.70;;;;;;5091315;28;19912;-70
2022/07/28 00:04:56;;;;;;;;;;;29.00;77.20;;;;;;5090713;28;19904;-67
2022/07/28 00:07:22;;;;;;;;;;;29.00;84.10;;;;;;5093268;28;19923;-69
2022/07/28 00:09:47;;;;;;;;;;;28.90;91.60;;;;;;5094644;28;19916;-69
2022/07/28 00:12:13;;;;;;;;;;;28.80;92.30;;;;;;5094561;28;19904;-68
2022/07/28 00:14:40;;;;;;;;;;;28.80;94.00;;;;;;5094622;28;19911;-70
2022/07/28 00:17:06;;;;;;;;;;;28.70;93.60;;;;;;5094699;28;20332;-69
2022/07/28 00:19:32;;;;;;;;;;;28.70;83.40;;;;;;5094416;28;20001;-69
2022/07/28 00:21:58;;;;;;;;;;;28.70;81.30;;;;;;5094748;28;19967;-70
2022/07/28 00:24:24;;;;;;;;;;;28.70;78.70;;;;;;5094504;28;19939;-70
2022/07/28 00:26:50;;;;;;;;;;;28.80;78.30;;;;;;5094648;28;19904;-69
2022/07/28 00:29:16;;;;;;;;;;;28.80;77.70;;;;;;5094178;28;19935;-69
2022/07/28 00:31:42;;;;;;;;;;;28.70;77.80;;;;;;5092769;28;19986;-69
2022/07/28 00:34:08;;;;;;;;;;;28.80;77.40;;;;;;5094311;28;19915;-69
2022/07/28 00:36:33;;;;;;;;;;;28.70;77.30;;;;;;5094183;28;19980;-69
2022/07/28 00:38:59;;;;;;;;;;;28.80;77.10;;;;;;5094281;28;19957;-69
2022/07/28 00:41:25;;;;;;;;;;;28.70;77.10;;;;;;5094166;28;19977;-69
2022/07/28 00:43:52;;;;;;;;;;;28.70;76.90;;;;;;5094018;28;19937;-69
2022/07/28 00:46:19;;;;;;;;;;;28.70;76.90;;;;;;5093890;28;19905;-69
2022/07/28 00:48:47;;;;;;;;;;;28.70;76.90;;;;;;5094167;28;19968;-70
2022/07/28 00:51:15;;;;;;;;;;;28.60;77.10;;;;;;5093711;28;19932;-70
2022/07/28 00:53:41;;;;;;;;;;;28.60;77.10;;;;;;5093967;28;19927;-70
2022/07/28 00:56:07;;;;;;;;;;;28.60;77.10;;;;;;5093645;28;19904;-70
2022/07/28 00:58:37;;;;;;;;;;;28.50;77.30;;;;;;5093792;28;19904;-69
2022/07/28 01:01:07;;;;;;;;;;;28.50;77.30;;;;;;5093642;28;19927;-70
2022/07/28 01:03:35;;;;;;;;;;;28.50;77.30;;;;;;5093617;28;19930;-70
2022/07/28 01:06:09;;;;;;;;;;;28.40;77.30;;;;;;5091966;28;19908;-69
2022/07/28 01:08:38;;;;;;;;;;;28.50;77.30;;;;;;5093599;28;19904;-70
2022/07/28 01:11:07;;;;;;;;;;;28.50;77.30;;;;;;5093787;28;19911;-70
2022/07/28 01:13:48;;;;;;;;;;;28.50;78.10;;;;;;5093506;28;19947;-70
2022/07/28 01:16:14;;;;;;;;;;;28.40;77.30;;;;;;5093799;28;20311;-69
2022/07/28 01:18:53;;;;;;;;;;;28.40;77.50;;;;;;5092701;28;19998;-70
2022/07/28 01:21:24;;;;;;;;;;;28.30;77.50;;;;;;5093170;28;19916;-69
2022/07/28 01:23:57;;;;;;;;;;;28.30;77.70;;;;;;5093405;28;20366;-69
2022/07/28 01:26:37;;;;;;;;;;;28.30;77.80;;;;;;5091709;28;20409;-69
2022/07/28 01:29:08;;;;;;;;;;;28.30;78.70;;;;;;5093436;28;19904;-69
2022/07/28 01:31:39;;;;;;;;;;;28.30;77.90;;;;;;5093222;28;20364;-69
2022/07/28 01:34:11;;;;;;;;;;;28.30;78.10;;;;;;5092950;28;19912;-69
2022/07/28 01:37:04;;;;;;;;;;;28.30;78.10;;;;;;5092772;28;19976;-69
2022/07/28 01:39:31;;;;;;;;;;;28.30;78.00;;;;;;5088979;28;19939;-69
2022/07/28 01:41:57;;;;;;;;;;;28.30;78.10;;;;;;5092693;28;19912;-69
2022/07/28 01:44:23;;;;;;;;;;;28.30;78.40;;;;;;5092904;28;20289;-70
2022/07/28 01:46:51;;;;;;;;;;;28.30;78.00;;;;;;5092946;28;19977;-69
2022/07/28 01:49:18;;;;;;;;;;;28.30;78.20;;;;;;5092816;28;20336;-70
2022/07/28 01:51:46;;;;;;;;;;;28.30;78.30;;;;;;5092606;28;19904;-69
2022/07/28 01:54:13;;;;;;;;;;;28.30;78.40;;;;;;5092576;28;19919;-70
2022/07/28 01:56:40;;;;;;;;;;;28.20;78.60;;;;;;5092942;28;19908;-69
2022/07/28 01:59:08;;;;;;;;;;;28.20;78.80;;;;;;5092391;28;20033;-69
2022/07/28 02:01:35;;;;;;;;;;;28.10;78.80;;;;;;5092503;28;19919;-69
2022/07/28 02:04:05;;;;;;;;;;;28.10;79.20;;;;;;5092464;28;19949;-69
2022/07/28 02:06:32;;;;;;;;;;;28.10;79.30;;;;;;5092673;28;20090;-69
2022/07/28 02:09:00;;;;;;;;;;;28.00;79.50;;;;;;5092654;28;20278;-70
2022/07/28 02:11:41;;;;;;;;;;;28.00;79.70;;;;;;5092334;28;20222;-70
2022/07/28 02:14:19;;;;;;;;;;;28.00;79.70;;;;;;5091142;28;20225;-69
2022/07/28 02:16:47;;;;;;;;;;;27.90;79.90;;;;;;5092487;28;19908;-70
2022/07/28 02:19:13;;;;;;;;;;;27.90;79.80;;;;;;5091987;28;19904;-69
2022/07/28 02:21:40;;;;;;;;;;;27.90;80.10;;;;;;5092343;28;20010;-70
2022/07/28 02:24:08;;;;;;;;;;;27.90;79.90;;;;;;5091942;28;19911;-69
2022/07/28 02:26:35;;;;;;;;;;;27.90;79.70;;;;;;5092025;28;19911;-70
2022/07/28 02:29:04;;;;;;;;;;;27.90;79.60;;;;;;5091280;28;20015;-70
2022/07/28 02:31:36;;;;;;;;;;;27.80;79.50;;;;;;5089892;28;20320;-69
2022/07/28 02:34:03;;;;;;;;;;;27.80;79.50;;;;;;5091001;28;19942;-70
2022/07/28 02:36:36;;;;;;;;;;;27.80;79.60;;;;;;5090953;28;19914;-70
2022/07/28 02:39:06;;;;;;;;;;;27.70;79.80;;;;;;5091642;28;19926;-69
2022/07/28 02:41:35;;;;;;;;;;;27.70;80.10;;;;;;5091081;28;20321;-70
2022/07/28 02:44:03;;;;;;;;;;;27.70;80.20;;;;;;5091415;28;20326;-68
2022/07/28 02:46:39;;;;;;;;;;;27.60;80.50;;;;;;5091758;28;19923;-69
2022/07/28 02:49:08;;;;;;;;;;;27.60;80.60;;;;;;5091340;28;20356;-69
2022/07/28 02:51:36;;;;;;;;;;;27.50;80.70;;;;;;5091548;28;19927;-70
2022/07/28 02:54:02;;;;;;;;;;;27.40;81.10;;;;;;5091791;28;20329;-69
2022/07/28 02:56:29;;;;;;;;;;;27.40;81.30;;;;;;5091257;28;20068;-69
2022/07/28 02:58:55;;;;;;;;;;;27.30;81.50;;;;;;5091143;28;19904;-68
2022/07/28 03:01:21;;;;;;;;;;;27.30;81.50;;;;;;5090980;28;19912;-69
2022/07/28 03:03:48;;;;;;;;;;;27.30;81.70;;;;;;5090964;28;19948;-70
2022/07/28 03:06:18;;;;;;;;;;;27.20;81.90;;;;;;5091020;28;20382;-70
2022/07/28 03:08:44;;;;;;;;;;;27.20;82.20;;;;;;5091171;28;19904;-69
2022/07/28 03:11:11;;;;;;;;;;;27.20;82.30;;;;;;5090919;28;19908;-70
2022/07/28 03:13:36;;;;;;;;;;;27.20;82.40;;;;;;5091924;28;20263;-69
2022/07/28 03:16:03;;;;;;;;;;;27.20;82.60;;;;;;5090104;28;20356;-69
2022/07/28 03:18:28;;;;;;;;;;;27.10;82.70;;;;;;5091821;28;20329;-70
2022/07/28 03:20:54;;;;;;;;;;;27.20;82.70;;;;;;5089910;28;20054;-70
2022/07/28 03:23:23;;;;;;;;;;;27.10;82.60;;;;;;5090485;28;20386;-69
2022/07/28 03:25:51;;;;;;;;;;;27.10;82.70;;;;;;5092105;28;19904;-69
2022/07/28 03:28:19;;;;;;;;;;;27.10;82.80;;;;;;5091777;28;19948;-69
2022/07/28 03:30:48;;;;;;;;;;;27.20;82.60;;;;;;5092211;28;19992;-70
2022/07/28 03:33:14;;;;;;;;;;;27.30;82.60;;;;;;5091685;28;19904;-69
2022/07/28 03:35:43;;;;;;;;;;;27.30;82.40;;;;;;5091968;28;19911;-70
2022/07/28 03:38:09;;;;;;;;;;;27.30;82.40;;;;;;5091729;28;19904;-70
2022/07/28 03:40:36;;;;;;;;;;;27.30;82.20;;;;;;5090067;28;19918;-69
2022/07/28 03:43:05;;;;;;;;;;;27.40;82.10;;;;;;5091632;28;19916;-69
2022/07/28 03:45:31;;;;;;;;;;;27.40;82.10;;;;;;5091517;28;19904;-69
2022/07/28 03:47:57;;;;;;;;;;;27.40;82.00;;;;;;5091678;28;20050;-69
2022/07/28 03:50:27;;;;;;;;;;;27.40;82.00;;;;;;5090093;28;19904;-69
2022/07/28 03:52:53;;;;;;;;;;;27.40;82.00;;;;;;5091616;28;19904;-70
2022/07/28 03:55:19;;;;;;;;;;;27.40;81.80;;;;;;5090042;28;19918;-69
2022/07/28 03:57:45;;;;;;;;;;;27.40;81.60;;;;;;5089965;28;19994;-69
2022/07/28 04:00:11;;;;;;;;;;;27.50;82.20;;;;;;5091676;28;19990;-69
2022/07/28 04:02:42;;;;;;;;;;;27.50;81.50;;;;;;5091193;28;19912;-70
2022/07/28 04:05:09;;;;;;;;;;;27.50;81.40;;;;;;5091652;28;19996;-69
2022/07/28 04:07:35;;;;;;;;;;;27.50;81.00;;;;;;5091309;28;19943;-70
2022/07/28 04:10:01;;;;;;;;;;;27.50;81.30;;;;;;5091422;28;20391;-69
2022/07/28 04:12:27;;;;;;;;;;;27.50;81.00;;;;;;5091368;28;19904;-69
2022/07/28 04:14:54;;;;;;;;;;;27.50;81.00;;;;;;5091229;28;19904;-70
2022/07/28 04:17:20;;;;;;;;;;;27.60;80.70;;;;;;5092339;28;19904;-69
2022/07/28 04:19:45;;;;;;;;;;;27.60;80.40;;;;;;5092607;28;19950;-69
2022/07/28 04:22:11;;;;;;;;;;;27.60;80.00;;;;;;5092744;28;20280;-69
2022/07/28 04:24:37;;;;;;;;;;;27.60;79.80;;;;;;5092410;28;19939;-69
2022/07/28 04:27:03;;;;;;;;;;;27.70;79.50;;;;;;5093028;28;19911;-69
2022/07/28 04:29:28;;;;;;;;;;;27.70;79.40;;;;;;5092598;28;19904;-69
2022/07/28 04:31:54;;;;;;;;;;;27.70;79.50;;;;;;5092175;28;19908;-70
2022/07/28 04:34:20;;;;;;;;;;;27.80;79.50;;;;;;5092473;28;19904;-69
2022/07/28 04:36:46;;;;;;;;;;;27.80;79.40;;;;;;5092012;28;19916;-70
2022/07/28 04:39:12;;;;;;;;;;;27.80;78.90;;;;;;5092826;28;19908;-70
2022/07/28 04:41:40;;;;;;;;;;;27.90;78.20;;;;;;5092465;28;19919;-70
2022/07/28 04:44:06;;;;;;;;;;;28.00;78.30;;;;;;5092489;28;19943;-70
2022/07/28 04:46:33;;;;;;;;;;;28.00;78.30;;;;;;5092868;28;19942;-70
2022/07/28 04:48:59;;;;;;;;;;;28.10;78.10;;;;;;5092658;28;19904;-69
2022/07/28 04:51:25;;;;;;;;;;;28.10;78.00;;;;;;5092892;28;19904;-69
2022/07/28 04:53:52;;;;;;;;;;;28.10;78.10;;;;;;5094270;28;19958;-69
2022/07/28 04:56:17;;;;;;;;;;;28.20;77.70;;;;;;5096262;28;20379;-69
2022/07/28 04:58:43;;;;;;;;;;;28.20;77.20;;;;;;5095893;28;19904;-70
2022/07/28 05:01:09;;;;;;;;;;;28.30;77.20;;;;;;5096318;28;19904;-70
2022/07/28 05:03:35;;;;;;;;;;;28.30;77.30;;;;;;5096213;28;20391;-70
2022/07/28 05:06:00;;;;;;;;;;;28.40;77.30;;;;;;5096325;28;19904;-70
2022/07/28 05:08:26;;;;;;;;;;;28.40;77.40;;;;;;5095661;28;20382;-69
2022/07/28 05:10:53;;;;;;;;;;;28.50;77.40;;;;;;5095516;28;19954;-70
2022/07/28 05:13:19;;;;;;;;;;;28.50;77.30;;;;;;5095627;28;19907;-69
2022/07/28 05:15:45;;;;;;;;;;;28.80;76.90;;;;;;5095548;28;19915;-70
2022/07/28 05:18:10;;;;;;;;;;;29.30;75.90;;;;;;5096224;28;19907;-69
2022/07/28 05:20:36;;;;;;;;;;;29.40;75.60;;;;;;5095515;28;20002;-70
2022/07/28 05:23:02;;;;;;;;;;;29.50;75.40;;;;;;5094308;28;19916;-70
2022/07/28 05:25:28;;;;;;;;;;;30.10;74.50;;;;;;5096133;28;19908;-70
2022/07/28 05:27:54;;;;;;;;;;;31.20;72.20;;;;;;5095181;28;19938;-70
2022/07/28 05:30:20;;;;;;;;;;;32.50;70.10;;;;;;5095567;28;20363;-69
2022/07/28 05:32:48;;;;;;;;;;;33.50;67.90;;;;;;5095453;28;19904;-70
2022/07/28 05:35:13;;;;;;;;;;;34.30;66.20;;;;;;5095534;28;19934;-70
2022/07/28 05:37:39;;;;;;;;;;;35.30;64.70;;;;;;5095414;28;19904;-70
2022/07/28 05:40:10;;;;;;;;;;;35.80;63.60;;;;;;5095752;28;19904;-70
2022/07/28 05:42:36;;;;;;;;;;;36.60;61.60;;;;;;5095492;28;19912;-70
2022/07/28 05:45:03;;;;;;;;;;;36.30;61.70;;;;;;5095383;28;19915;-69
2022/07/28 05:47:29;;;;;;;;;;;36.50;60.70;;;;;;5094021;28;19904;-70
2022/07/28 05:50:03;;;;;;;;;;;36.60;61.30;;;;;;5095478;28;19904;-70
2022/07/28 05:52:31;;;;;;;;;;;36.80;60.30;;;;;;5094903;28;20062;-70
2022/07/28 05:54:57;;;;;;;;;;;37.70;59.30;;;;;;5092959;28;20257;-70
2022/07/28 05:57:23;;;;;;;;;;;37.60;59.30;;;;;;5094777;28;20022;-70
2022/07/28 05:59:49;;;;;;;;;;;38.20;58.60;;;;;;5094382;28;19923;-70
2022/07/28 06:02:15;;;;;;;;;;;38.80;57.80;;;;;;5094594;28;19957;-70
2022/07/28 06:04:41;;;;;;;;;;;40.00;56.10;;;;;;5093895;28;19904;-70
2022/07/28 06:07:07;;;;;;;;;;;39.20;56.90;;;;;;5094692;28;20390;-71
2022/07/28 06:09:33;;;;;;;;;;;39.80;56.00;;;;;;5094246;28;19950;-70
2022/07/28 06:11:58;;;;;;;;;;;39.90;55.60;;;;;;5094007;28;20248;-70
2022/07/28 06:14:24;;;;;;;;;;;40.00;55.70;;;;;;5092223;28;19904;-70
2022/07/28 06:16:50;;;;;;;;;;;40.60;55.60;;;;;;5092749;28;19911;-71
2022/07/28 06:19:16;;;;;;;;;;;41.90;54.00;;;;;;5094073;28;19936;-70
2022/07/28 06:21:42;;;;;;;;;;;40.70;54.20;;;;;;5094442;28;20445;-70
2022/07/28 06:24:08;;;;;;;;;;;39.50;55.60;;;;;;5094211;28;19966;-71
2022/07/28 06:26:38;;;;;;;;;;;38.90;56.20;;;;;;5094395;28;19965;-71
2022/07/28 06:29:05;;;;;;;;;;;39.30;56.60;;;;;;5094043;28;20021;-70
2022/07/28 06:31:31;;;;;;;;;;;38.70;57.20;;;;;;5094094;28;19904;-71
2022/07/28 06:33:57;;;;;;;;;;;38.50;57.50;;;;;;5094440;28;19927;-71
2022/07/28 06:36:23;;;;;;;;;;;39.20;56.80;;;;;;5093817;28;19903;-70
2022/07/28 06:38:48;;;;;;;;;;;39.10;56.30;;;;;;5094013;28;19949;-71
2022/07/28 06:41:14;;;;;;;;;;;39.60;56.10;;;;;;5093553;28;19910;-71
2022/07/28 06:43:40;;;;;;;;;;;40.20;55.70;;;;;;5093810;28;20276;-70
2022/07/28 06:46:07;;;;;;;;;;;40.10;55.80;;;;;;5093551;28;20371;-71
2022/07/28 06:48:36;;;;;;;;;;;40.00;56.00;;;;;;5093862;28;19915;-70
2022/07/28 06:51:02;;;;;;;;;;;39.90;56.30;;;;;;5093515;28;19908;-71
2022/07/28 06:53:28;;;;;;;;;;;39.50;57.30;;;;;;5093354;28;19911;-70
2022/07/28 06:55:53;;;;;;;;;;;39.80;57.20;;;;;;5093786;28;19987;-71
2022/07/28 06:58:20;;;;;;;;;;;39.60;57.20;;;;;;5093299;28;20410;-71
2022/07/28 07:00:46;;;;;;;;;;;39.30;58.20;;;;;;5093137;28;19987;-70
2022/07/28 07:03:11;;;;;;;;;;;38.70;59.20;;;;;;5092971;28;20411;-70
2022/07/28 07:05:37;;;;;;;;;;;38.40;60.20;;;;;;5092995;28;19908;-70
2022/07/28 07:08:03;;;;;;;;;;;39.00;60.00;;;;;;5092821;28;19994;-70
2022/07/28 07:10:29;;;;;;;;;;;39.50;60.10;;;;;;5092796;28;19915;-71
2022/07/28 07:12:55;;;;;;;;;;;39.90;60.00;;;;;;5093694;28;20241;-70
2022/07/28 07:15:21;;;;;;;;;;;39.40;60.50;;;;;;5092868;28;19904;-70
2022/07/28 07:17:46;;;;;;;;;;;39.20;61.70;;;;;;5092530;28;19904;-70
2022/07/28 07:20:13;;;;;;;;;;;39.20;62.60;;;;;;5092364;28;20394;-70
2022/07/28 07:22:42;;;;;;;;;;;38.50;64.00;;;;;;5093011;28;20279;-70
2022/07/28 07:25:12;;;;;;;;;;;38.00;65.80;;;;;;5092925;28;19970;-70
2022/07/28 07:27:38;;;;;;;;;;;37.20;66.70;;;;;;5092898;28;19911;-69
2022/07/28 07:30:04;;;;;;;;;;;36.50;68.00;;;;;;5093425;28;19904;-70
2022/07/28 07:32:30;;;;;;;;;;;35.50;69.60;;;;;;5093594;28;19904;-69
2022/07/28 07:34:56;;;;;;;;;;;35.50;70.30;;;;;;5092779;28;19957;-70
2022/07/28 07:37:23;;;;;;;;;;;34.80;70.60;;;;;;5093129;28;19908;-70
2022/07/28 07:39:49;;;;;;;;;;;35.00;70.20;;;;;;5092542;28;20361;-71
2022/07/28 07:42:15;;;;;;;;;;;34.80;70.90;;;;;;5093001;28;20058;-70
2022/07/28 07:44:41;;;;;;;;;;;34.80;70.30;;;;;;5092600;28;19968;-71
2022/07/28 07:47:08;;;;;;;;;;;35.20;69.30;;;;;;5090876;28;19904;-70
2022/07/28 07:49:33;;;;;;;;;;;35.30;67.40;;;;;;5092840;28;19911;-70
2022/07/28 07:51:59;;;;;;;;;;;34.70;69.20;;;;;;5092458;28;19904;-71
2022/07/28 07:54:25;;;;;;;;;;;34.40;70.00;;;;;;5091971;28;19915;-70
2022/07/28 07:56:51;;;;;;;;;;;34.70;69.30;;;;;;5091532;28;19916;-71
2022/07/28 07:59:17;;;;;;;;;;;35.10;68.70;;;;;;5092173;28;19904;-71
2022/07/28 08:01:42;;;;;;;;;;;35.00;68.20;;;;;;5091623;28;20261;-71
2022/07/28 08:04:08;;;;;;;;;;;35.60;68.20;;;;;;5092029;28;20267;-71
2022/07/28 08:06:34;;;;;;;;;;;35.90;66.40;;;;;;5091626;28;19939;-70
2022/07/28 08:09:00;;;;;;;;;;;36.00;65.90;;;;;;5092024;28;19946;-71
2022/07/28 08:11:26;;;;;;;;;;;35.80;66.00;;;;;;5091809;28;19904;-70
2022/07/28 08:13:51;;;;;;;;;;;35.70;66.00;;;;;;5091610;28;19904;-70
2022/07/28 08:16:17;;;;;;;;;;;35.80;66.10;;;;;;5091715;28;19910;-72
2022/07/28 08:18:43;;;;;;;;;;;35.80;66.20;;;;;;5092943;28;20344;-70
2022/07/28 08:21:09;;;;;;;;;;;35.60;67.10;;;;;;5090460;28;19923;-70
2022/07/28 08:23:35;;;;;;;;;;;36.20;66.80;;;;;;5092415;28;19904;-70
2022/07/28 08:26:02;;;;;;;;;;;36.70;65.30;;;;;;5091976;28;20233;-70
2022/07/28 08:28:28;;;;;;;;;;;37.30;65.00;;;;;;5093290;28;19904;-71
2022/07/28 08:30:55;;;;;;;;;;;37.60;67.10;;;;;;5096038;28;19904;-71
2022/07/28 08:33:21;;;;;;;;;;;37.60;67.10;;;;;;5094710;28;19965;-70
2022/07/28 08:35:48;;;;;;;;;;;37.50;68.60;;;;;;5096029;28;19912;-71
2022/07/28 08:38:14;;;;;;;;;;;37.40;69.20;;;;;;5095987;28;19918;-70
2022/07/28 08:40:40;;;;;;;;;;;37.20;69.70;;;;;;5096173;28;20308;-70
2022/07/28 08:43:06;;;;;;;;;;;37.40;70.00;;;;;;5095645;28;19919;-71
2022/07/28 08:45:33;;;;;;;;;;;37.60;70.50;;;;;;5095708;28;19965;-71
2022/07/28 08:47:59;;;;;;;;;;;37.60;70.60;;;;;;5094066;28;19903;-71
2022/07/28 08:50:26;;;;;;;;;;;37.70;71.00;;;;;;5095645;28;19919;-71
2022/07/28 08:52:52;;;;;;;;;;;37.70;71.70;;;;;;5094684;28;19904;-71
2022/07/28 08:55:23;;;;;;;;;;;37.60;72.20;;;;;;5094862;28;20257;-71
2022/07/28 08:57:49;;;;;;;;;;;37.60;72.10;;;;;;5094829;28;19911;-70
2022/07/28 09:00:15;;;;;;;;;;;38.00;72.00;;;;;;5095138;28;19904;-71
2022/07/28 09:02:46;;;;;;;;;;;37.80;72.20;;;;;;5094732;28;19931;-71
2022/07/28 09:05:11;;;;;;;;;;;37.30;74.70;;;;;;5094482;28;20344;-71
2022/07/28 09:07:40;;;;;;;;;;;36.90;76.30;;;;;;5093652;28;19918;-70
2022/07/28 09:10:06;;;;;;;;;;;36.80;77.20;;;;;;5094984;28;20359;-70
2022/07/28 09:12:33;;;;;;;;;;;37.00;77.50;;;;;;5094900;28;20015;-71
2022/07/28 09:15:02;;;;;;;;;;;36.90;78.00;;;;;;5094513;28;19904;-71
2022/07/28 09:17:28;;;;;;;;;;;37.20;78.50;;;;;;5094497;28;19916;-71
2022/07/28 09:19:54;;;;;;;;;;;37.00;71.60;;;;;;5094099;28;19999;-71
2022/07/28 09:22:20;;;;;;;;;;;36.60;73.00;;;;;;5092840;28;19912;-71
2022/07/28 09:24:46;;;;;;;;;;;36.50;74.60;;;;;;5094053;28;19904;-71
2022/07/28 09:27:12;;;;;;;;;;;36.40;74.70;;;;;;5094479;28;19905;-72
2022/07/28 09:29:39;;;;;;;;;;;36.50;72.60;;;;;;5094446;28;19904;-71
2022/07/28 09:32:06;;;;;;;;;;;36.30;70.40;;;;;;5094671;28;20002;-70
2022/07/28 09:34:48;;;;;;;;;;;36.30;69.80;;;;;;5094495;28;19904;-70
2022/07/28 09:37:24;;;;;;;;;;;36.20;70.70;;;;;;5094350;28;20285;-70
2022/07/28 09:39:53;;;;;;;;;;;35.90;72.50;;;;;;5093552;28;19991;-70
2022/07/28 09:42:19;;;;;;;;;;;35.90;73.50;;;;;;5094215;28;19912;-70
2022/07/28 09:45:00;;;;;;;;;;;35.90;73.00;;;;;;5094325;28;19926;-70
2022/07/28 09:47:29;;;;;;;;;;;35.80;73.90;;;;;;5094503;28;19950;-70
2022/07/28 09:49:55;;;;;;;;;;;35.40;74.40;;;;;;5093575;28;19904;-70
2022/07/28 09:52:31;;;;;;;;;;;35.40;75.10;;;;;;5093981;28;19904;-71
2022/07/28 09:55:00;;;;;;;;;;;35.50;74.80;;;;;;5094149;28;19904;-71
2022/07/28 09:57:27;;;;;;;;;;;35.50;74.20;;;;;;5093873;28;20417;-71
2022/07/28 09:59:53;;;;;;;;;;;35.70;73.80;;;;;;5093702;28;20333;-71
2022/07/28 10:02:23;;;;;;;;;;;35.60;73.40;;;;;;5093693;28;19916;-71
2022/07/28 10:04:50;;;;;;;;;;;35.50;73.90;;;;;;5093695;28;19904;-71
2022/07/28 10:07:16;;;;;;;;;;;35.70;73.30;;;;;;5093559;28;20360;-70
2022/07/28 10:09:43;;;;;;;;;;;35.70;73.20;;;;;;5093654;28;19907;-71
2022/07/28 10:12:16;;;;;;;;;;;35.70;72.20;;;;;;5092006;28;20448;-71
2022/07/28 10:14:42;;;;;;;;;;;35.40;72.70;;;;;;5093950;28;19911;-71
2022/07/28 10:17:09;;;;;;;;;;;35.40;72.00;;;;;;5094000;28;19904;-71
2022/07/28 10:19:35;;;;;;;;;;;35.60;71.20;;;;;;5094219;28;19916;-70
2022/07/28 10:22:01;;;;;;;;;;;35.40;71.60;;;;;;5094191;28;20016;-71
2022/07/28 10:24:30;;;;;;;;;;;35.50;69.60;;;;;;5094072;28;20412;-71
2022/07/28 10:26:56;;;;;;;;;;;35.20;70.40;;;;;;5093972;28;20006;-70
2022/07/28 10:29:23;;;;;;;;;;;35.10;71.20;;;;;;5094130;28;20010;-71
2022/07/28 10:31:51;;;;;;;;;;;35.20;71.50;;;;;;5094217;28;19912;-71
2022/07/28 10:34:21;;;;;;;;;;;35.40;71.00;;;;;;5093818;28;20444;-70
2022/07/28 10:36:49;;;;;;;;;;;35.40;71.20;;;;;;5094170;28;19951;-71
2022/07/28 10:39:17;;;;;;;;;;;35.10;75.30;;;;;;5093611;28;19915;-71
2022/07/28 10:41:43;;;;;;;;;;;35.20;76.80;;;;;;5094123;28;19942;-70
2022/07/28 10:44:12;;;;;;;;;;;35.20;77.40;;;;;;5093281;28;19952;-72
2022/07/28 10:46:42;;;;;;;;;;;35.30;77.90;;;;;;5093357;28;19910;-71
2022/07/28 10:49:08;;;;;;;;;;;35.20;76.70;;;;;;5093459;28;19926;-71
2022/07/28 10:51:35;;;;;;;;;;;34.80;77.70;;;;;;5091935;28;19904;-71
2022/07/28 10:54:07;;;;;;;;;;;34.50;78.00;;;;;;5093155;28;19904;-71
2022/07/28 10:56:48;;;;;;;;;;;34.60;76.10;;;;;;5092870;28;19908;-71
2022/07/28 10:59:32;;;;;;;;;;;34.70;77.10;;;;;;5093129;28;19911;-71
2022/07/28 11:01:58;;;;;;;;;;;35.00;77.60;;;;;;5092970;28;19912;-71
2022/07/28 11:04:43;;;;;;;;;;;35.00;76.20;;;;;;5093138;28;19911;-71
2022/07/28 11:07:10;;;;;;;;;;;34.90;78.60;;;;;;5092802;28;19986;-71
2022/07/28 11:09:36;;;;;;;;;;;35.00;77.70;;;;;;5092646;28;20003;-71
2022/07/28 11:12:01;;;;;;;;;;;35.10;78.00;;;;;;5092997;28;19943;-71
2022/07/28 11:14:32;;;;;;;;;;;35.10;75.80;;;;;;5092680;28;20257;-71
2022/07/28 11:17:04;;;;;;;;;;;35.10;74.80;;;;;;5092835;28;20369;-71
2022/07/28 11:19:29;;;;;;;;;;;35.10;72.30;;;;;;5091854;28;20386;-71
2022/07/28 11:22:14;;;;;;;;;;;35.20;71.60;;;;;;5093696;28;20003;-71
2022/07/28 11:27:44;;;;;;;;;;;35.10;70.80;;;;;;5093221;28;19912;-70
2022/07/28 11:30:10;;;;;;;;;;;35.10;71.30;;;;;;5093170;28;19996;-71
2022/07/28 11:32:54;;;;;;;;;;;35.10;70.10;;;;;;5093668;28;19943;-71
2022/07/28 11:35:21;;;;;;;;;;;35.00;71.60;;;;;;5093542;28;20321;-71
2022/07/28 11:38:02;;;;;;;;;;;35.00;72.10;;;;;;5093262;28;19904;-71
2022/07/28 11:40:32;;;;;;;;;;;35.00;71.30;;;;;;5093029;28;19926;-71
2022/07/28 11:43:16;;;;;;;;;;;35.10;70.00;;;;;;5093616;28;19912;-71
2022/07/28 11:45:42;;;;;;;;;;;35.00;71.70;;;;;;5091829;28;19903;-71
2022/07/28 11:48:14;;;;;;;;;;;35.00;73.20;;;;;;5093768;28;19904;-72
2022/07/28 11:50:41;;;;;;;;;;;34.90;72.90;;;;;;5093039;28;19911;-71
2022/07/28 11:53:06;;;;;;;;;;;34.90;73.80;;;;;;5092752;28;19911;-71
2022/07/28 11:55:33;;;;;;;;;;;34.80;72.70;;;;;;5093052;28;19904;-71
2022/07/28 11:58:01;;;;;;;;;;;34.80;72.30;;;;;;5092654;28;19904;-71
2022/07/28 12:00:28;;;;;;;;;;;34.80;73.70;;;;;;5093140;28;19904;-71
2022/07/28 12:02:54;;;;;;;;;;;34.70;76.70;;;;;;5092058;28;19959;-72
2022/07/28 12:05:21;;;;;;;;;;;34.70;76.30;;;;;;5092241;28;19927;-71
2022/07/28 12:07:48;;;;;;;;;;;34.50;78.80;;;;;;5092133;28;19911;-71
2022/07/28 12:10:28;;;;;;;;;;;34.70;79.00;;;;;;5091853;28;19930;-71
2022/07/28 12:12:55;;;;;;;;;;;34.60;76.90;;;;;;5092262;28;19904;-71
2022/07/28 12:15:21;;;;;;;;;;;34.40;76.40;;;;;;5092410;28;19996;-71
2022/07/28 12:17:48;;;;;;;;;;;34.40;81.80;;;;;;5093379;28;19904;-71
2022/07/28 12:20:16;;;;;;;;;;;34.50;80.40;;;;;;5092661;28;19985;-71
2022/07/28 12:23:01;;;;;;;;;;;34.50;79.30;;;;;;5092818;28;20352;-71
2022/07/28 12:25:26;;;;;;;;;;;34.50;78.40;;;;;;5092694;28;19904;-71
2022/07/28 12:27:53;;;;;;;;;;;34.50;80.30;;;;;;5091192;28;19930;-72
2022/07/28 12:30:24;;;;;;;;;;;34.60;80.70;;;;;;5091168;28;19908;-69
2022/07/28 12:32:50;;;;;;;;;;;34.50;82.30;;;;;;5090837;28;20037;-71
2022/07/28 12:35:16;;;;;;;;;;;34.60;83.90;;;;;;5092419;28;20283;-71
2022/07/28 12:37:46;;;;;;;;;;;34.70;82.80;;;;;;5092543;28;20356;-71
2022/07/28 12:40:14;;;;;;;;;;;34.50;84.10;;;;;;5092782;28;20348;-71
2022/07/28 12:42:40;;;;;;;;;;;34.50;85.00;;;;;;5092586;28;19962;-71
2022/07/28 12:45:08;;;;;;;;;;;34.50;86.20;;;;;;5092348;28;19911;-71
2022/07/28 12:47:34;;;;;;;;;;;34.60;88.40;;;;;;5092783;28;19907;-70
2022/07/28 12:50:26;;;;;;;;;;;34.70;87.70;;;;;;5092286;28;19950;-70
2022/07/28 12:53:02;;;;;;;;;;;34.70;87.20;;;;;;5088283;28;19926;-71
2022/07/28 12:55:31;;;;;;;;;;;34.80;85.40;;;;;;5092568;28;19904;-71
2022/07/28 12:57:57;;;;;;;;;;;35.00;83.20;;;;;;5092358;28;19911;-71
2022/07/28 13:00:24;;;;;;;;;;;35.10;81.20;;;;;;5092652;28;19908;-72
2022/07/28 13:02:51;;;;;;;;;;;35.10;79.10;;;;;;5092309;28;19912;-71
2022/07/28 13:05:26;;;;;;;;;;;35.20;79.10;;;;;;5092399;28;19904;-71
2022/07/28 13:08:02;;;;;;;;;;;35.00;80.20;;;;;;5092385;28;20272;-71
2022/07/28 13:10:29;;;;;;;;;;;34.80;79.00;;;;;;5092705;28;19904;-71
2022/07/28 13:13:01;;;;;;;;;;;35.10;78.20;;;;;;5092060;28;19904;-71
2022/07/28 13:15:27;;;;;;;;;;;34.80;79.90;;;;;;5094471;28;19904;-71
2022/07/28 13:17:55;;;;;;;;;;;34.70;79.80;;;;;;5095584;28;19908;-71
2022/07/28 13:20:22;;;;;;;;;;;34.50;82.50;;;;;;5095246;28;19916;-71
2022/07/28 13:22:49;;;;;;;;;;;34.60;83.40;;;;;;5095281;28;20410;-71
2022/07/28 13:25:15;;;;;;;;;;;34.70;80.20;;;;;;5095453;28;19996;-71
2022/07/28 13:27:41;;;;;;;;;;;34.80;82.10;;;;;;5095375;28;19951;-71
2022/07/28 13:30:07;;;;;;;;;;;34.60;82.20;;;;;;5095966;28;19904;-71
2022/07/28 13:32:33;;;;;;;;;;;34.80;83.30;;;;;;5095396;28;19904;-71
2022/07/28 13:34:59;;;;;;;;;;;34.80;82.50;;;;;;5095449;28;19904;-71
2022/07/28 13:37:24;;;;;;;;;;;34.80;78.20;;;;;;5095488;28;20348;-71
2022/07/28 13:39:50;;;;;;;;;;;34.90;78.60;;;;;;5095435;28;19950;-71
2022/07/28 13:42:17;;;;;;;;;;;34.70;77.90;;;;;;5095806;28;19912;-71
2022/07/28 13:44:42;;;;;;;;;;;34.80;76.40;;;;;;5095416;28;19904;-71
2022/07/28 13:47:08;;;;;;;;;;;34.90;75.20;;;;;;5095263;28;20269;-71
2022/07/28 13:49:36;;;;;;;;;;;34.70;75.70;;;;;;5095668;28;19904;-71
2022/07/28 13:52:03;;;;;;;;;;;34.70;75.30;;;;;;5095026;28;19955;-71
2022/07/28 13:54:29;;;;;;;;;;;34.90;72.60;;;;;;5094608;28;19908;-71
2022/07/28 13:56:54;;;;;;;;;;;35.00;72.00;;;;;;5094996;28;20344;-71
2022/07/28 13:59:20;;;;;;;;;;;35.00;72.40;;;;;;5095162;28;20029;-71
2022/07/28 14:01:46;;;;;;;;;;;35.10;72.80;;;;;;5094555;28;19912;-72
2022/07/28 14:04:15;;;;;;;;;;;35.30;71.40;;;;;;5094918;28;19904;-71
2022/07/28 14:06:43;;;;;;;;;;;35.40;69.10;;;;;;5094612;28;20066;-71
2022/07/28 14:09:10;;;;;;;;;;;35.40;70.40;;;;;;5095024;28;19911;-71
2022/07/28 14:11:36;;;;;;;;;;;35.30;72.80;;;;;;5094507;28;20268;-70
2022/07/28 14:14:02;;;;;;;;;;;35.10;77.10;;;;;;5094805;28;20056;-71
2022/07/28 14:16:30;;;;;;;;;;;35.00;78.70;;;;;;5094411;28;20041;-70
2022/07/28 14:18:56;;;;;;;;;;;34.90;78.90;;;;;;5094482;28;19932;-71
2022/07/28 14:21:22;;;;;;;;;;;34.90;78.30;;;;;;5094007;28;19916;-71